sensor_id;sensor_type;location;lat;lon;timestamp;temperature;humidity
4425;DHT22;2225;53.568;13.266;2023-06-10T00:01:41;18.10;90.10
4425;DHT22;2225;53.568;13.266;2023-06-10T00:04:09;18.10;90.10
4425;DHT22;2225;53.568;13.266;2023-06-10T00:06:37;18.10;90.40
4425;DHT22;2225;53.568;13.266;2023-06-10T00:09:04;18.10;90.30
4425;DHT22;2225;53.568;13.266;2023-06-10T00:11:35;18.00;90.20
4425;DHT22;2225;53.568;13.266;2023-06-10T00:14:03;18.00;90.30
4425;DHT22;2225;53.568;13.266;2023-06-10T00:16:30;18.00;90.30
4425;DHT22;2225;53.568;13.266;2023-06-10T00:18:58;18.00;90.40
4425;DHT22;2225;53.568;13.266;2023-06-10T00:21:28;17.90;90.40
4425;DHT22;2225;53.568;13.266;2023-06-10T00:23:55;18.00;90.60
4425;DHT22;2225;53.568;13.266;2023-06-10T00:26:23;17.90;90.50
4425;DHT22;2225;53.568;13.266;2023-06-10T00:28:50;17.90;90.50
4425;DHT22;2225;53.568;13.266;2023-06-10T00:31:20;17.90;90.60
4425;DHT22;2225;53.568;13.266;2023-06-10T00:33:47;17.80;90.80
4425;DHT22;2225;53.568;13.266;2023-06-10T00:36:14;17.90;90.70
4425;DHT22;2225;53.568;13.266;2023-06-10T00:38:41;17.80;90.70
4425;DHT22;2225;53.568;13.266;2023-06-10T00:41:08;17.80;90.70
4425;DHT22;2225;53.568;13.266;2023-06-10T00:43:35;17.80;90.70
4425;DHT22;2225;53.568;13.266;2023-06-10T00:46:02;17.80;90.70
4425;DHT22;2225;53.568;13.266;2023-06-10T00:48:30;17.80;90.70
4425;DHT22;2225;53.568;13.266;2023-06-10T00:50:58;17.80;90.80
4425;DHT22;2225;53.568;13.266;2023-06-10T00:53:26;17.70;90.80
4425;DHT22;2225;53.568;13.266;2023-06-10T00:55:54;17.80;90.80
4425;DHT22;2225;53.568;13.266;2023-06-10T00:58:23;17.80;90.80
4425;DHT22;2225;53.568;13.266;2023-06-10T01:00:50;17.80;90.90
4425;DHT22;2225;53.568;13.266;2023-06-10T01:03:18;17.80;90.90
4425;DHT22;2225;53.568;13.266;2023-06-10T01:05:59;17.80;90.90
4425;DHT22;2225;53.568;13.266;2023-06-10T01:08:43;17.80;91.10
4425;DHT22;2225;53.568;13.266;2023-06-10T01:11:33;17.80;91.10
4425;DHT22;2225;53.568;13.266;2023-06-10T01:14:03;17.70;90.90
4425;DHT22;2225;53.568;13.266;2023-06-10T01:16:32;17.70;90.90
4425;DHT22;2225;53.568;13.266;2023-06-10T01:18:59;17.70;91.00
4425;DHT22;2225;53.568;13.266;2023-06-10T01:21:27;17.70;91.00
4425;DHT22;2225;53.568;13.266;2023-06-10T01:23:54;17.70;91.00
4425;DHT22;2225;53.568;13.266;2023-06-10T01:26:26;17.70;91.00
4425;DHT22;2225;53.568;13.266;2023-06-10T01:29:03;17.70;91.00
4425;DHT22;2225;53.568;13.266;2023-06-10T01:34:18;17.70;91.10
4425;DHT22;2225;53.568;13.266;2023-06-10T01:36:47;17.70;91.10
4425;DHT22;2225;53.568;13.266;2023-06-10T01:39:22;17.70;91.10
4425;DHT22;2225;53.568;13.266;2023-06-10T01:41:50;17.70;91.20
4425;DHT22;2225;53.568;13.266;2023-06-10T01:44:22;17.70;91.20
4425;DHT22;2225;53.568;13.266;2023-06-10T01:46:49;17.70;91.60
4425;DHT22;2225;53.568;13.266;2023-06-10T01:49:16;17.70;91.30
4425;DHT22;2225;53.568;13.266;2023-06-10T01:51:43;17.60;91.20
4425;DHT22;2225;53.568;13.266;2023-06-10T01:54:10;17.60;91.30
4425;DHT22;2225;53.568;13.266;2023-06-10T01:56:38;17.60;91.20
4425;DHT22;2225;53.568;13.266;2023-06-10T01:59:05;17.70;91.30
4425;DHT22;2225;53.568;13.266;2023-06-10T02:01:33;17.60;91.20
4425;DHT22;2225;53.568;13.266;2023-06-10T02:04:01;17.70;91.30
4425;DHT22;2225;53.568;13.266;2023-06-10T02:06:31;17.60;91.30
4425;DHT22;2225;53.568;13.266;2023-06-10T02:08:58;17.60;91.30
4425;DHT22;2225;53.568;13.266;2023-06-10T02:11:27;17.60;91.30
4425;DHT22;2225;53.568;13.266;2023-06-10T02:13:54;17.60;91.30
4425;DHT22;2225;53.568;13.266;2023-06-10T02:16:21;17.70;91.30
4425;DHT22;2225;53.568;13.266;2023-06-10T02:18:48;17.60;91.30
4425;DHT22;2225;53.568;13.266;2023-06-10T02:21:15;17.60;91.30
4425;DHT22;2225;53.568;13.266;2023-06-10T02:23:42;17.60;91.30
4425;DHT22;2225;53.568;13.266;2023-06-10T02:26:09;17.70;91.30
4425;DHT22;2225;53.568;13.266;2023-06-10T02:28:36;17.70;91.30
4425;DHT22;2225;53.568;13.266;2023-06-10T02:31:03;17.70;91.30
4425;DHT22;2225;53.568;13.266;2023-06-10T02:33:30;17.70;91.40
4425;DHT22;2225;53.568;13.266;2023-06-10T02:35:58;17.60;91.30
4425;DHT22;2225;53.568;13.266;2023-06-10T02:38:26;17.70;91.40
4425;DHT22;2225;53.568;13.266;2023-06-10T02:40:54;17.70;91.30
4425;DHT22;2225;53.568;13.266;2023-06-10T02:43:21;17.70;91.30
4425;DHT22;2225;53.568;13.266;2023-06-10T02:45:48;17.70;91.40
4425;DHT22;2225;53.568;13.266;2023-06-10T02:48:17;17.70;91.40
4425;DHT22;2225;53.568;13.266;2023-06-10T02:50:43;17.70;91.40
4425;DHT22;2225;53.568;13.266;2023-06-10T02:53:19;17.70;91.50
4425;DHT22;2225;53.568;13.266;2023-06-10T02:55:53;17.70;91.40
4425;DHT22;2225;53.568;13.266;2023-06-10T02:58:20;17.70;91.40
4425;DHT22;2225;53.568;13.266;2023-06-10T03:00:47;17.70;91.40
4425;DHT22;2225;53.568;13.266;2023-06-10T03:03:15;17.70;91.50
4425;DHT22;2225;53.568;13.266;2023-06-10T03:05:57;17.70;91.50
4425;DHT22;2225;53.568;13.266;2023-06-10T03:08:26;17.80;91.40
4425;DHT22;2225;53.568;13.266;2023-06-10T03:10:54;17.80;91.40
4425;DHT22;2225;53.568;13.266;2023-06-10T03:13:23;17.80;91.30
4425;DHT22;2225;53.568;13.266;2023-06-10T03:15:50;17.80;91.30
4425;DHT22;2225;53.568;13.266;2023-06-10T03:18:20;17.90;91.30
4425;DHT22;2225;53.568;13.266;2023-06-10T03:20:49;17.90;91.30
4425;DHT22;2225;53.568;13.266;2023-06-10T03:23:18;17.80;91.20
4425;DHT22;2225;53.568;13.266;2023-06-10T03:25:45;17.90;91.20
4425;DHT22;2225;53.568;13.266;2023-06-10T03:28:15;17.90;91.20
4425;DHT22;2225;53.568;13.266;2023-06-10T03:30:43;17.90;91.20
4425;DHT22;2225;53.568;13.266;2023-06-10T03:33:10;18.00;91.20
4425;DHT22;2225;53.568;13.266;2023-06-10T03:35:39;18.00;91.20
4425;DHT22;2225;53.568;13.266;2023-06-10T03:38:06;18.00;91.20
4425;DHT22;2225;53.568;13.266;2023-06-10T03:40:33;18.00;91.10
4425;DHT22;2225;53.568;13.266;2023-06-10T03:43:01;18.00;91.20
4425;DHT22;2225;53.568;13.266;2023-06-10T03:45:29;18.10;91.20
4425;DHT22;2225;53.568;13.266;2023-06-10T03:47:56;18.10;91.10
4425;DHT22;2225;53.568;13.266;2023-06-10T03:50:30;18.10;91.10
4425;DHT22;2225;53.568;13.266;2023-06-10T03:52:57;18.20;91.10
4425;DHT22;2225;53.568;13.266;2023-06-10T03:55:26;18.20;91.10
4425;DHT22;2225;53.568;13.266;2023-06-10T03:57:54;18.30;91.30
4425;DHT22;2225;53.568;13.266;2023-06-10T04:00:21;18.30;91.30
4425;DHT22;2225;53.568;13.266;2023-06-10T04:02:48;18.50;91.40
4425;DHT22;2225;53.568;13.266;2023-06-10T04:05:28;18.60;91.40
4425;DHT22;2225;53.568;13.266;2023-06-10T04:07:57;18.80;91.40
4425;DHT22;2225;53.568;13.266;2023-06-10T04:10:24;18.90;91.30
4425;DHT22;2225;53.568;13.266;2023-06-10T04:12:53;19.10;91.30
4425;DHT22;2225;53.568;13.266;2023-06-10T04:15:22;19.30;91.20
4425;DHT22;2225;53.568;13.266;2023-06-10T04:17:49;19.50;90.90
4425;DHT22;2225;53.568;13.266;2023-06-10T04:20:19;19.70;90.70
4425;DHT22;2225;53.568;13.266;2023-06-10T04:22:48;20.00;90.10
4425;DHT22;2225;53.568;13.266;2023-06-10T04:25:15;20.10;88.90
4425;DHT22;2225;53.568;13.266;2023-06-10T04:27:43;20.30;88.30
4425;DHT22;2225;53.568;13.266;2023-06-10T04:30:11;20.40;87.50
4425;DHT22;2225;53.568;13.266;2023-06-10T04:32:40;20.60;87.60
4425;DHT22;2225;53.568;13.266;2023-06-10T04:35:12;20.70;87.00
4425;DHT22;2225;53.568;13.266;2023-06-10T04:37:41;20.80;86.20
4425;DHT22;2225;53.568;13.266;2023-06-10T04:40:09;20.90;85.70
4425;DHT22;2225;53.568;13.266;2023-06-10T04:42:37;20.90;84.90
4425;DHT22;2225;53.568;13.266;2023-06-10T04:45:04;20.90;84.70
4425;DHT22;2225;53.568;13.266;2023-06-10T04:47:33;20.90;85.60
4425;DHT22;2225;53.568;13.266;2023-06-10T04:50:01;21.00;84.80
4425;DHT22;2225;53.568;13.266;2023-06-10T04:52:29;20.90;84.80
4425;DHT22;2225;53.568;13.266;2023-06-10T04:54:58;20.80;84.70
4425;DHT22;2225;53.568;13.266;2023-06-10T04:57:25;20.80;84.80
4425;DHT22;2225;53.568;13.266;2023-06-10T04:59:53;20.70;85.20
4425;DHT22;2225;53.568;13.266;2023-06-10T05:02:20;20.70;85.50
4425;DHT22;2225;53.568;13.266;2023-06-10T05:04:47;20.60;85.80
4425;DHT22;2225;53.568;13.266;2023-06-10T05:07:14;20.60;86.30
4425;DHT22;2225;53.568;13.266;2023-06-10T05:09:41;20.50;86.30
4425;DHT22;2225;53.568;13.266;2023-06-10T05:12:08;20.50;86.20
4425;DHT22;2225;53.568;13.266;2023-06-10T05:14:35;20.50;86.50
4425;DHT22;2225;53.568;13.266;2023-06-10T05:17:02;20.50;86.60
4425;DHT22;2225;53.568;13.266;2023-06-10T05:19:32;20.50;86.70
4425;DHT22;2225;53.568;13.266;2023-06-10T05:21:59;20.50;86.80
4425;DHT22;2225;53.568;13.266;2023-06-10T05:24:27;20.60;87.10
4425;DHT22;2225;53.568;13.266;2023-06-10T05:26:55;20.60;86.90
4425;DHT22;2225;53.568;13.266;2023-06-10T05:29:21;20.60;87.00
4425;DHT22;2225;53.568;13.266;2023-06-10T05:31:49;20.60;87.00
4425;DHT22;2225;53.568;13.266;2023-06-10T05:34:16;20.60;86.70
4425;DHT22;2225;53.568;13.266;2023-06-10T05:36:43;20.70;86.70
4425;DHT22;2225;53.568;13.266;2023-06-10T05:39:10;20.70;86.20
4425;DHT22;2225;53.568;13.266;2023-06-10T05:41:37;20.70;86.00
4425;DHT22;2225;53.568;13.266;2023-06-10T05:44:04;20.80;86.10
4425;DHT22;2225;53.568;13.266;2023-06-10T05:46:31;20.80;85.80
4425;DHT22;2225;53.568;13.266;2023-06-10T05:48:58;20.80;86.00
4425;DHT22;2225;53.568;13.266;2023-06-10T05:51:25;20.70;86.00
4425;DHT22;2225;53.568;13.266;2023-06-10T05:53:52;20.80;86.10
4425;DHT22;2225;53.568;13.266;2023-06-10T05:56:19;20.80;86.00
4425;DHT22;2225;53.568;13.266;2023-06-10T05:58:47;20.80;86.10
4425;DHT22;2225;53.568;13.266;2023-06-10T06:01:14;20.80;86.40
4425;DHT22;2225;53.568;13.266;2023-06-10T06:03:41;20.80;86.50
4425;DHT22;2225;53.568;13.266;2023-06-10T06:06:09;20.90;86.50
4425;DHT22;2225;53.568;13.266;2023-06-10T06:08:36;21.00;86.20
4425;DHT22;2225;53.568;13.266;2023-06-10T06:11:02;21.00;86.00
4425;DHT22;2225;53.568;13.266;2023-06-10T06:13:29;21.10;86.30
4425;DHT22;2225;53.568;13.266;2023-06-10T06:15:56;21.20;85.50
4425;DHT22;2225;53.568;13.266;2023-06-10T06:18:23;21.30;85.30
4425;DHT22;2225;53.568;13.266;2023-06-10T06:20:50;21.40;85.50
4425;DHT22;2225;53.568;13.266;2023-06-10T06:23:17;21.40;85.40
4425;DHT22;2225;53.568;13.266;2023-06-10T06:25:44;21.50;85.30
4425;DHT22;2225;53.568;13.266;2023-06-10T06:28:11;21.60;84.90
4425;DHT22;2225;53.568;13.266;2023-06-10T06:30:38;21.70;84.60
4425;DHT22;2225;53.568;13.266;2023-06-10T06:33:05;21.70;84.50
4425;DHT22;2225;53.568;13.266;2023-06-10T06:35:33;21.80;84.60
4425;DHT22;2225;53.568;13.266;2023-06-10T06:38:00;21.90;84.40
4425;DHT22;2225;53.568;13.266;2023-06-10T06:40:29;22.00;83.90
4425;DHT22;2225;53.568;13.266;2023-06-10T06:42:56;22.10;83.20
4425;DHT22;2225;53.568;13.266;2023-06-10T06:45:37;22.20;83.30
4425;DHT22;2225;53.568;13.266;2023-06-10T06:48:05;22.30;82.40
4425;DHT22;2225;53.568;13.266;2023-06-10T06:50:32;22.40;82.50
4425;DHT22;2225;53.568;13.266;2023-06-10T06:52:59;22.40;82.40
4425;DHT22;2225;53.568;13.266;2023-06-10T06:55:26;22.50;82.30
4425;DHT22;2225;53.568;13.266;2023-06-10T06:57:53;22.60;82.30
4425;DHT22;2225;53.568;13.266;2023-06-10T07:00:20;22.60;82.10
4425;DHT22;2225;53.568;13.266;2023-06-10T07:02:47;22.70;81.50
4425;DHT22;2225;53.568;13.266;2023-06-10T07:05:14;22.80;81.60
4425;DHT22;2225;53.568;13.266;2023-06-10T07:07:41;22.90;81.30
4425;DHT22;2225;53.568;13.266;2023-06-10T07:10:08;23.10;81.00
4425;DHT22;2225;53.568;13.266;2023-06-10T07:12:36;23.20;80.30
4425;DHT22;2225;53.568;13.266;2023-06-10T07:15:03;23.30;80.20
4425;DHT22;2225;53.568;13.266;2023-06-10T07:17:30;23.40;79.60
4425;DHT22;2225;53.568;13.266;2023-06-10T07:19:57;23.60;79.40
4425;DHT22;2225;53.568;13.266;2023-06-10T07:22:26;23.70;78.70
4425;DHT22;2225;53.568;13.266;2023-06-10T07:24:53;23.80;77.70
4425;DHT22;2225;53.568;13.266;2023-06-10T07:27:22;23.90;76.70
4425;DHT22;2225;53.568;13.266;2023-06-10T07:29:49;23.90;76.60
4425;DHT22;2225;53.568;13.266;2023-06-10T07:32:15;24.00;76.70
4425;DHT22;2225;53.568;13.266;2023-06-10T07:34:45;24.10;76.20
4425;DHT22;2225;53.568;13.266;2023-06-10T07:37:11;24.20;75.80
4425;DHT22;2225;53.568;13.266;2023-06-10T07:39:38;24.20;76.10
4425;DHT22;2225;53.568;13.266;2023-06-10T07:42:06;24.20;75.80
4425;DHT22;2225;53.568;13.266;2023-06-10T07:44:33;24.30;76.00
4425;DHT22;2225;53.568;13.266;2023-06-10T07:47:02;24.40;75.90
4425;DHT22;2225;53.568;13.266;2023-06-10T07:49:30;24.50;76.20
4425;DHT22;2225;53.568;13.266;2023-06-10T07:51:58;24.60;75.30
4425;DHT22;2225;53.568;13.266;2023-06-10T07:54:25;24.70;75.30
4425;DHT22;2225;53.568;13.266;2023-06-10T07:56:55;24.80;75.00
4425;DHT22;2225;53.568;13.266;2023-06-10T07:59:22;24.90;74.60
4425;DHT22;2225;53.568;13.266;2023-06-10T08:01:49;25.00;75.00
4425;DHT22;2225;53.568;13.266;2023-06-10T08:04:16;25.10;74.50
4425;DHT22;2225;53.568;13.266;2023-06-10T08:06:43;25.20;73.20
4425;DHT22;2225;53.568;13.266;2023-06-10T08:09:10;25.30;73.20
4425;DHT22;2225;53.568;13.266;2023-06-10T08:11:37;25.40;72.80
4425;DHT22;2225;53.568;13.266;2023-06-10T08:14:04;25.50;72.10
4425;DHT22;2225;53.568;13.266;2023-06-10T08:16:31;25.60;71.90
4425;DHT22;2225;53.568;13.266;2023-06-10T08:18:58;25.60;71.60
4425;DHT22;2225;53.568;13.266;2023-06-10T08:21:25;25.60;70.70
4425;DHT22;2225;53.568;13.266;2023-06-10T08:23:55;25.80;70.40
4425;DHT22;2225;53.568;13.266;2023-06-10T08:26:23;25.80;70.80
4425;DHT22;2225;53.568;13.266;2023-06-10T08:28:51;25.90;71.80
4425;DHT22;2225;53.568;13.266;2023-06-10T08:31:18;25.90;71.10
4425;DHT22;2225;53.568;13.266;2023-06-10T08:33:45;26.00;71.20
4425;DHT22;2225;53.568;13.266;2023-06-10T08:36:12;26.00;71.50
4425;DHT22;2225;53.568;13.266;2023-06-10T08:38:39;26.10;70.10
4425;DHT22;2225;53.568;13.266;2023-06-10T08:41:06;26.20;69.80
4425;DHT22;2225;53.568;13.266;2023-06-10T08:43:42;26.20;69.90
4425;DHT22;2225;53.568;13.266;2023-06-10T08:46:11;26.30;69.70
4425;DHT22;2225;53.568;13.266;2023-06-10T08:48:43;26.30;69.50
4425;DHT22;2225;53.568;13.266;2023-06-10T08:51:12;26.40;68.80
4425;DHT22;2225;53.568;13.266;2023-06-10T08:53:50;26.40;69.00
4425;DHT22;2225;53.568;13.266;2023-06-10T08:56:25;26.50;68.80
4425;DHT22;2225;53.568;13.266;2023-06-10T08:58:53;26.50;68.70
4425;DHT22;2225;53.568;13.266;2023-06-10T09:01:20;26.50;68.80
4425;DHT22;2225;53.568;13.266;2023-06-10T09:03:48;26.60;68.80
4425;DHT22;2225;53.568;13.266;2023-06-10T09:06:16;26.70;68.50
4425;DHT22;2225;53.568;13.266;2023-06-10T09:08:43;26.80;68.50
4425;DHT22;2225;53.568;13.266;2023-06-10T09:11:10;26.90;68.70
4425;DHT22;2225;53.568;13.266;2023-06-10T09:13:37;26.90;67.60
4425;DHT22;2225;53.568;13.266;2023-06-10T09:16:04;27.10;66.70
4425;DHT22;2225;53.568;13.266;2023-06-10T09:18:31;27.20;67.30
4425;DHT22;2225;53.568;13.266;2023-06-10T09:20:58;27.20;66.50
4425;DHT22;2225;53.568;13.266;2023-06-10T09:23:25;27.40;66.20
4425;DHT22;2225;53.568;13.266;2023-06-10T09:25:57;27.40;66.20
4425;DHT22;2225;53.568;13.266;2023-06-10T09:28:26;27.60;66.10
4425;DHT22;2225;53.568;13.266;2023-06-10T09:31:04;27.70;65.40
4425;DHT22;2225;53.568;13.266;2023-06-10T09:33:32;27.80;65.30
4425;DHT22;2225;53.568;13.266;2023-06-10T09:36:01;27.90;64.90
4425;DHT22;2225;53.568;13.266;2023-06-10T09:38:34;28.00;64.20
4425;DHT22;2225;53.568;13.266;2023-06-10T09:41:02;28.10;63.30
4425;DHT22;2225;53.568;13.266;2023-06-10T09:43:41;28.30;62.70
4425;DHT22;2225;53.568;13.266;2023-06-10T09:46:18;28.30;63.00
4425;DHT22;2225;53.568;13.266;2023-06-10T09:48:47;28.40;62.50
4425;DHT22;2225;53.568;13.266;2023-06-10T09:51:14;28.40;62.10
4425;DHT22;2225;53.568;13.266;2023-06-10T09:53:48;28.50;60.90
4425;DHT22;2225;53.568;13.266;2023-06-10T09:56:16;28.40;60.50
4425;DHT22;2225;53.568;13.266;2023-06-10T09:58:45;28.40;61.00
4425;DHT22;2225;53.568;13.266;2023-06-10T10:01:14;28.40;60.70
4425;DHT22;2225;53.568;13.266;2023-06-10T10:03:51;28.50;61.30
4425;DHT22;2225;53.568;13.266;2023-06-10T10:06:19;28.50;60.90
4425;DHT22;2225;53.568;13.266;2023-06-10T10:08:48;28.50;60.30
4425;DHT22;2225;53.568;13.266;2023-06-10T10:11:18;28.40;61.20
4425;DHT22;2225;53.568;13.266;2023-06-10T10:13:48;28.50;60.40
4425;DHT22;2225;53.568;13.266;2023-06-10T10:16:21;28.50;60.00
4425;DHT22;2225;53.568;13.266;2023-06-10T10:18:59;28.50;59.50
4425;DHT22;2225;53.568;13.266;2023-06-10T10:21:34;28.60;59.70
4425;DHT22;2225;53.568;13.266;2023-06-10T10:24:09;28.60;60.00
4425;DHT22;2225;53.568;13.266;2023-06-10T10:26:57;28.70;59.40
4425;DHT22;2225;53.568;13.266;2023-06-10T10:29:30;28.80;59.00
4425;DHT22;2225;53.568;13.266;2023-06-10T10:32:00;28.90;58.80
4425;DHT22;2225;53.568;13.266;2023-06-10T10:34:37;29.00;59.00
4425;DHT22;2225;53.568;13.266;2023-06-10T10:37:17;29.10;58.70
4425;DHT22;2225;53.568;13.266;2023-06-10T10:39:45;29.20;58.60
4425;DHT22;2225;53.568;13.266;2023-06-10T10:42:12;29.30;57.90
4425;DHT22;2225;53.568;13.266;2023-06-10T10:44:40;29.40;58.50
4425;DHT22;2225;53.568;13.266;2023-06-10T10:47:08;29.50;58.10
4425;DHT22;2225;53.568;13.266;2023-06-10T10:49:39;29.60;57.70
4425;DHT22;2225;53.568;13.266;2023-06-10T10:52:13;29.70;57.50
4425;DHT22;2225;53.568;13.266;2023-06-10T10:54:44;29.80;57.50
4425;DHT22;2225;53.568;13.266;2023-06-10T10:57:17;29.90;57.50
4425;DHT22;2225;53.568;13.266;2023-06-10T11:02:31;29.90;57.00
4425;DHT22;2225;53.568;13.266;2023-06-10T11:05:38;29.90;56.90
4425;DHT22;2225;53.568;13.266;2023-06-10T11:08:15;30.00;57.30
4425;DHT22;2225;53.568;13.266;2023-06-10T11:11:24;29.90;57.00
4425;DHT22;2225;53.568;13.266;2023-06-10T11:16:41;29.90;57.50
4425;DHT22;2225;53.568;13.266;2023-06-10T11:19:09;29.90;56.70
4425;DHT22;2225;53.568;13.266;2023-06-10T11:21:58;30.00;57.10
4425;DHT22;2225;53.568;13.266;2023-06-10T11:24:29;30.00;56.80
4425;DHT22;2225;53.568;13.266;2023-06-10T11:27:19;30.00;56.40
4425;DHT22;2225;53.568;13.266;2023-06-10T11:32:31;30.00;56.70
4425;DHT22;2225;53.568;13.266;2023-06-10T11:35:03;30.00;57.00
4425;DHT22;2225;53.568;13.266;2023-06-10T11:37:30;30.00;56.70
4425;DHT22;2225;53.568;13.266;2023-06-10T11:39:58;30.10;56.60
4425;DHT22;2225;53.568;13.266;2023-06-10T11:42:25;30.10;56.40
4425;DHT22;2225;53.568;13.266;2023-06-10T11:44:53;30.10;56.60
4425;DHT22;2225;53.568;13.266;2023-06-10T11:47:21;30.20;56.70
4425;DHT22;2225;53.568;13.266;2023-06-10T11:49:58;30.10;55.70
4425;DHT22;2225;53.568;13.266;2023-06-10T11:52:32;30.20;56.20
4425;DHT22;2225;53.568;13.266;2023-06-10T11:55:04;30.20;55.90
4425;DHT22;2225;53.568;13.266;2023-06-10T11:57:36;30.30;55.70
4425;DHT22;2225;53.568;13.266;2023-06-10T12:00:07;30.30;56.10
4425;DHT22;2225;53.568;13.266;2023-06-10T12:02:37;30.40;56.10
4425;DHT22;2225;53.568;13.266;2023-06-10T12:05:12;30.40;56.10
4425;DHT22;2225;53.568;13.266;2023-06-10T12:07:39;30.50;56.30
4425;DHT22;2225;53.568;13.266;2023-06-10T12:10:07;30.50;56.10
4425;DHT22;2225;53.568;13.266;2023-06-10T12:12:52;30.50;55.80
4425;DHT22;2225;53.568;13.266;2023-06-10T12:15:28;30.50;55.70
4425;DHT22;2225;53.568;13.266;2023-06-10T12:17:55;30.40;55.70
4425;DHT22;2225;53.568;13.266;2023-06-10T12:20:28;30.40;55.90
4425;DHT22;2225;53.568;13.266;2023-06-10T12:22:55;30.40;56.40
4425;DHT22;2225;53.568;13.266;2023-06-10T12:25:29;30.40;56.60
4425;DHT22;2225;53.568;13.266;2023-06-10T12:27:57;30.40;56.30
4425;DHT22;2225;53.568;13.266;2023-06-10T12:30:26;30.40;55.90
4425;DHT22;2225;53.568;13.266;2023-06-10T12:32:54;30.40;56.10
4425;DHT22;2225;53.568;13.266;2023-06-10T12:35:26;30.40;56.40
4425;DHT22;2225;53.568;13.266;2023-06-10T12:38:02;30.50;56.20
4425;DHT22;2225;53.568;13.266;2023-06-10T12:40:38;30.40;55.80
4425;DHT22;2225;53.568;13.266;2023-06-10T12:43:09;30.50;55.80
4425;DHT22;2225;53.568;13.266;2023-06-10T12:45:37;30.40;55.10
4425;DHT22;2225;53.568;13.266;2023-06-10T12:48:19;30.40;55.10
4425;DHT22;2225;53.568;13.266;2023-06-10T12:50:58;30.40;54.90
4425;DHT22;2225;53.568;13.266;2023-06-10T12:53:25;30.40;55.50
4425;DHT22;2225;53.568;13.266;2023-06-10T12:55:55;30.40;55.30
4425;DHT22;2225;53.568;13.266;2023-06-10T12:58:22;30.40;55.00
4425;DHT22;2225;53.568;13.266;2023-06-10T13:00:49;30.40;54.70
4425;DHT22;2225;53.568;13.266;2023-06-10T13:03:19;30.40;54.90
4425;DHT22;2225;53.568;13.266;2023-06-10T13:05:47;30.40;54.90
4425;DHT22;2225;53.568;13.266;2023-06-10T13:08:14;30.50;54.80
4425;DHT22;2225;53.568;13.266;2023-06-10T13:10:42;30.40;54.40
4425;DHT22;2225;53.568;13.266;2023-06-10T13:13:09;30.40;54.20
4425;DHT22;2225;53.568;13.266;2023-06-10T13:15:36;30.40;54.20
4425;DHT22;2225;53.568;13.266;2023-06-10T13:18:08;30.40;54.20
4425;DHT22;2225;53.568;13.266;2023-06-10T13:20:36;30.40;54.40
4425;DHT22;2225;53.568;13.266;2023-06-10T13:23:03;30.40;54.10
4425;DHT22;2225;53.568;13.266;2023-06-10T13:25:30;30.50;54.40
4425;DHT22;2225;53.568;13.266;2023-06-10T13:27:57;30.50;54.50
4425;DHT22;2225;53.568;13.266;2023-06-10T13:30:24;30.40;54.40
4425;DHT22;2225;53.568;13.266;2023-06-10T13:32:51;30.40;54.10
4425;DHT22;2225;53.568;13.266;2023-06-10T13:35:18;30.40;54.00
4425;DHT22;2225;53.568;13.266;2023-06-10T13:37:45;30.30;53.80
4425;DHT22;2225;53.568;13.266;2023-06-10T13:40:12;30.30;53.60
4425;DHT22;2225;53.568;13.266;2023-06-10T13:42:39;30.20;53.80
4425;DHT22;2225;53.568;13.266;2023-06-10T13:45:06;30.20;53.30
4425;DHT22;2225;53.568;13.266;2023-06-10T13:47:34;30.10;53.60
4425;DHT22;2225;53.568;13.266;2023-06-10T13:50:02;30.10;53.80
4425;DHT22;2225;53.568;13.266;2023-06-10T13:52:29;30.10;53.70
4425;DHT22;2225;53.568;13.266;2023-06-10T13:54:56;30.10;53.90
4425;DHT22;2225;53.568;13.266;2023-06-10T13:57:22;30.00;54.00
4425;DHT22;2225;53.568;13.266;2023-06-10T13:59:49;30.00;53.90
4425;DHT22;2225;53.568;13.266;2023-06-10T14:02:16;30.00;54.00
4425;DHT22;2225;53.568;13.266;2023-06-10T14:04:44;30.10;53.90
4425;DHT22;2225;53.568;13.266;2023-06-10T14:07:10;30.10;53.80
4425;DHT22;2225;53.568;13.266;2023-06-10T14:09:37;30.10;53.80
4425;DHT22;2225;53.568;13.266;2023-06-10T14:12:05;30.10;53.50
4425;DHT22;2225;53.568;13.266;2023-06-10T14:14:32;30.10;53.60
4425;DHT22;2225;53.568;13.266;2023-06-10T14:16:59;30.20;53.50
4425;DHT22;2225;53.568;13.266;2023-06-10T14:19:27;30.20;52.50
4425;DHT22;2225;53.568;13.266;2023-06-10T14:21:54;30.20;52.20
4425;DHT22;2225;53.568;13.266;2023-06-10T14:24:22;30.10;52.20
4425;DHT22;2225;53.568;13.266;2023-06-10T14:26:49;30.00;52.00
4425;DHT22;2225;53.568;13.266;2023-06-10T14:29:16;30.00;52.10
4425;DHT22;2225;53.568;13.266;2023-06-10T14:31:44;29.90;52.10
4425;DHT22;2225;53.568;13.266;2023-06-10T14:34:11;29.80;51.70
4425;DHT22;2225;53.568;13.266;2023-06-10T14:36:38;29.80;51.90
4425;DHT22;2225;53.568;13.266;2023-06-10T14:39:05;29.80;51.90
4425;DHT22;2225;53.568;13.266;2023-06-10T14:41:32;29.80;51.70
4425;DHT22;2225;53.568;13.266;2023-06-10T14:43:59;29.80;51.90
4425;DHT22;2225;53.568;13.266;2023-06-10T14:46:26;29.70;51.50
4425;DHT22;2225;53.568;13.266;2023-06-10T14:48:53;29.70;51.60
4425;DHT22;2225;53.568;13.266;2023-06-10T14:51:20;29.60;51.20
4425;DHT22;2225;53.568;13.266;2023-06-10T14:53:47;29.60;51.10
4425;DHT22;2225;53.568;13.266;2023-06-10T14:56:14;29.50;51.10
4425;DHT22;2225;53.568;13.266;2023-06-10T14:58:41;29.60;51.40
4425;DHT22;2225;53.568;13.266;2023-06-10T15:01:08;29.50;50.70
4425;DHT22;2225;53.568;13.266;2023-06-10T15:03:35;29.40;50.70
4425;DHT22;2225;53.568;13.266;2023-06-10T15:06:02;29.40;51.00
4425;DHT22;2225;53.568;13.266;2023-06-10T15:08:29;29.40;51.00
4425;DHT22;2225;53.568;13.266;2023-06-10T15:10:56;29.40;50.90
4425;DHT22;2225;53.568;13.266;2023-06-10T15:13:24;29.40;50.70
4425;DHT22;2225;53.568;13.266;2023-06-10T15:15:51;29.30;50.50
4425;DHT22;2225;53.568;13.266;2023-06-10T15:18:18;29.30;50.00
4425;DHT22;2225;53.568;13.266;2023-06-10T15:20:45;29.40;50.00
4425;DHT22;2225;53.568;13.266;2023-06-10T15:23:12;29.30;50.10
4425;DHT22;2225;53.568;13.266;2023-06-10T15:25:39;29.30;49.10
4425;DHT22;2225;53.568;13.266;2023-06-10T15:28:07;29.20;48.80
4425;DHT22;2225;53.568;13.266;2023-06-10T15:30:34;29.20;48.90
4425;DHT22;2225;53.568;13.266;2023-06-10T15:33:03;29.10;48.50
4425;DHT22;2225;53.568;13.266;2023-06-10T15:35:33;29.00;48.60
4425;DHT22;2225;53.568;13.266;2023-06-10T15:38:00;29.10;48.50
4425;DHT22;2225;53.568;13.266;2023-06-10T15:40:27;29.10;48.50
4425;DHT22;2225;53.568;13.266;2023-06-10T15:42:54;29.10;47.90
4425;DHT22;2225;53.568;13.266;2023-06-10T15:45:21;29.20;47.20
4425;DHT22;2225;53.568;13.266;2023-06-10T15:47:48;29.10;47.60
4425;DHT22;2225;53.568;13.266;2023-06-10T15:50:15;29.20;47.60
4425;DHT22;2225;53.568;13.266;2023-06-10T15:52:42;29.10;46.60
4425;DHT22;2225;53.568;13.266;2023-06-10T15:55:09;29.00;46.60
4425;DHT22;2225;53.568;13.266;2023-06-10T15:57:36;29.10;46.90
4425;DHT22;2225;53.568;13.266;2023-06-10T16:00:03;29.00;47.10
4425;DHT22;2225;53.568;13.266;2023-06-10T16:02:33;29.00;47.20
4425;DHT22;2225;53.568;13.266;2023-06-10T16:05:03;28.90;46.50
4425;DHT22;2225;53.568;13.266;2023-06-10T16:07:31;28.90;46.00